createdAt,value
2018-07-08T00:01:06.219Z,20.92
2018-07-08T00:04:30.787Z,20.69
2018-07-08T00:07:56.427Z,20.71
2018-07-08T00:11:21.011Z,20.71
2018-07-08T00:14:45.459Z,20.73
2018-07-08T00:18:09.997Z,20.36
2018-07-08T00:21:34.452Z,20.26
2018-07-08T00:24:58.974Z,19.96
2018-07-08T00:28:23.478Z,19.93
2018-07-08T00:31:47.991Z,19.70
2018-07-08T00:35:12.513Z,19.70
2018-07-08T00:38:37.050Z,19.56
2018-07-08T00:42:01.302Z,19.62
2018-07-08T00:45:25.814Z,19.62
2018-07-08T00:48:50.351Z,19.50
2018-07-08T00:52:14.883Z,19.33
2018-07-08T00:55:39.452Z,19.16
2018-07-08T00:59:03.960Z,19.13
2018-07-08T01:02:28.469Z,19.10
2018-07-08T01:05:53.066Z,19.16
2018-07-08T01:09:17.569Z,19.26
2018-07-08T01:12:42.131Z,19.12
2018-07-08T01:16:06.803Z,19.08
2018-07-08T01:19:32.490Z,19.12
2018-07-08T01:22:57.019Z,19.18
2018-07-08T01:26:21.619Z,19.00
2018-07-08T01:29:46.131Z,19.08
2018-07-08T01:33:10.633Z,19.01
2018-07-08T01:36:35.111Z,19.01
2018-07-08T01:39:59.654Z,18.99
2018-07-08T01:43:24.123Z,19.02
2018-07-08T01:46:48.627Z,19.15
2018-07-08T01:50:13.169Z,19.06
2018-07-08T01:53:37.696Z,18.82
2018-07-08T01:57:02.269Z,18.67
2018-07-08T02:00:26.861Z,18.59
2018-07-08T02:03:52.697Z,18.62
2018-07-08T02:07:17.492Z,18.35
2018-07-08T02:10:42.052Z,18.36
2018-07-08T02:14:06.520Z,18.32
2018-07-08T02:17:31.042Z,18.23
2018-07-08T02:20:55.500Z,18.25
2018-07-08T02:24:20.439Z,18.25
2018-07-08T02:27:44.857Z,18.26
2018-07-08T02:31:09.583Z,18.01
2018-07-08T02:34:34.179Z,17.86
2018-07-08T02:37:59.978Z,17.95
2018-07-08T02:41:24.392Z,17.81
2018-07-08T02:44:49.118Z,17.67
2018-07-08T02:48:13.604Z,17.64
2018-07-08T02:51:38.054Z,17.75
2018-07-08T02:55:02.456Z,17.78
2018-07-08T02:58:26.985Z,17.57
2018-07-08T03:01:51.386Z,17.58
2018-07-08T03:05:15.808Z,17.45
2018-07-08T03:08:40.294Z,17.53
2018-07-08T03:12:04.760Z,17.63
2018-07-08T03:15:29.163Z,17.62
2018-07-08T03:18:53.678Z,17.70
2018-07-08T03:22:18.124Z,17.69
2018-07-08T03:25:42.517Z,17.52
2018-07-08T03:29:07.009Z,17.53
2018-07-08T03:32:31.398Z,17.47
2018-07-08T03:35:55.863Z,17.51
2018-07-08T03:39:20.302Z,17.53
2018-07-08T03:42:44.788Z,17.48
2018-07-08T03:46:09.275Z,17.61
2018-07-08T03:49:33.727Z,17.59
2018-07-08T03:52:58.197Z,17.54
2018-07-08T03:56:22.736Z,17.59
2018-07-08T03:59:47.153Z,17.51
2018-07-08T04:03:11.610Z,17.64
2018-07-08T04:06:36.646Z,17.63
2018-07-08T04:10:01.106Z,17.60
2018-07-08T04:13:25.583Z,17.54
2018-07-08T04:16:50.091Z,17.78
2018-07-08T04:20:14.551Z,17.72
2018-07-08T04:23:39.037Z,17.70
2018-07-08T04:27:03.639Z,17.73
2018-07-08T04:30:28.618Z,17.72
2018-07-08T04:33:53.159Z,17.90
2018-07-08T04:37:17.694Z,17.77
2018-07-08T04:40:42.179Z,17.81
2018-07-08T04:44:06.310Z,17.81
2018-07-08T04:47:30.916Z,17.92
2018-07-08T04:50:55.379Z,18.02
2018-07-08T04:54:19.892Z,18.10
2018-07-08T04:57:44.401Z,18.14
2018-07-08T05:01:08.922Z,18.17
2018-07-08T05:04:33.446Z,18.29
2018-07-08T05:07:57.892Z,18.20
2018-07-08T05:11:23.052Z,18.23
2018-07-08T05:15:02.487Z,18.33
2018-07-08T05:18:28.572Z,18.51
2018-07-08T05:21:53.663Z,18.53
2018-07-08T05:25:20.054Z,18.50
2018-07-08T05:28:46.309Z,18.65
2018-07-08T05:32:11.740Z,18.70
2018-07-08T05:35:36.783Z,18.80
2018-07-08T05:39:01.515Z,18.83
2018-07-08T05:42:27.173Z,19.02
2018-07-08T05:45:52.045Z,18.99
2018-07-08T05:49:17.837Z,18.93
2018-07-08T05:52:42.967Z,18.88
2018-07-08T05:56:09.440Z,18.82
2018-07-08T05:59:34.859Z,18.86
2018-07-08T06:03:01.290Z,18.91
2018-07-08T06:06:27.365Z,19.04
2018-07-08T06:09:53.464Z,19.03
2018-07-08T06:13:19.008Z,19.18
2018-07-08T06:16:44.449Z,19.05
2018-07-08T06:20:11.080Z,19.24
2018-07-08T06:23:35.754Z,19.45
2018-07-08T06:27:01.793Z,19.45
2018-07-08T06:30:27.357Z,19.59
2018-07-08T06:33:55.487Z,19.60
2018-07-08T06:37:19.907Z,19.59
2018-07-08T06:40:56.400Z,19.48
2018-07-08T06:44:22.198Z,19.53
2018-07-08T06:47:46.870Z,19.69
2018-07-08T06:51:11.473Z,19.89
2018-07-08T06:54:37.530Z,19.71
2018-07-08T06:58:02.008Z,20.01
2018-07-08T07:01:26.563Z,19.93
2018-07-08T07:04:50.962Z,20.07
2018-07-08T07:08:16.141Z,20.18
2018-07-08T07:11:41.021Z,20.48
2018-07-08T07:15:05.637Z,20.38
2018-07-08T07:18:30.114Z,20.56
2018-07-08T07:21:54.691Z,20.54
2018-07-08T07:25:19.128Z,20.52
2018-07-08T07:28:43.566Z,20.50
2018-07-08T07:32:10.655Z,20.75
2018-07-08T07:35:36.323Z,21.05
2018-07-08T07:39:00.854Z,21.15
2018-07-08T07:42:25.336Z,21.06
2018-07-08T07:45:50.375Z,21.14
2018-07-08T07:49:14.957Z,21.17
2018-07-08T07:52:39.462Z,21.38
2018-07-08T07:56:04.164Z,21.25
2018-07-08T07:59:28.692Z,21.10
2018-07-08T08:02:53.158Z,21.30
2018-07-08T08:06:17.691Z,21.50
2018-07-08T08:09:42.191Z,21.63
2018-07-08T08:13:06.689Z,21.84
2018-07-08T08:16:31.166Z,21.95
2018-07-08T08:19:55.637Z,21.98
2018-07-08T08:23:20.124Z,22.17
2018-07-08T08:26:44.715Z,22.24
2018-07-08T08:30:09.173Z,22.43
2018-07-08T08:33:33.674Z,22.62
2018-07-08T08:36:58.153Z,22.92
2018-07-08T08:40:24.691Z,23.06
2018-07-08T08:43:49.172Z,23.20
2018-07-08T08:47:14.046Z,23.26
2018-07-08T08:50:38.600Z,23.41
2018-07-08T08:54:03.110Z,23.03
2018-07-08T08:57:27.706Z,23.21
2018-07-08T09:00:53.962Z,23.34
2018-07-08T09:04:24.141Z,23.49
2018-07-08T09:07:48.622Z,23.65
2018-07-08T09:11:13.125Z,23.72
2018-07-08T09:14:38.038Z,23.95
2018-07-08T09:18:02.574Z,24.24
2018-07-08T09:21:27.222Z,24.48
2018-07-08T09:24:52.271Z,24.39
2018-07-08T09:28:17.647Z,24.50
2018-07-08T09:31:42.288Z,24.77
2018-07-08T09:35:06.744Z,24.35
2018-07-08T09:38:31.349Z,24.76
2018-07-08T09:41:57.490Z,25.10
2018-07-08T09:45:21.892Z,25.49
2018-07-08T09:48:46.310Z,25.60
2018-07-08T09:52:10.791Z,25.84
2018-07-08T09:55:35.181Z,26.11
2018-07-08T09:58:59.890Z,26.33
2018-07-08T10:02:24.372Z,26.86
2018-07-08T10:05:48.852Z,26.92
2018-07-08T10:09:14.757Z,27.25
2018-07-08T10:12:39.290Z,27.52
2018-07-08T10:16:03.725Z,27.70
2018-07-08T10:19:28.527Z,27.80
2018-07-08T10:22:52.922Z,28.36
2018-07-08T10:26:17.377Z,28.68
2018-07-08T10:29:41.849Z,28.81
2018-07-08T10:33:06.364Z,29.19
2018-07-08T10:36:30.883Z,29.25
2018-07-08T10:39:55.335Z,29.50
2018-07-08T10:43:19.846Z,29.80
2018-07-08T10:46:44.436Z,30.10
2018-07-08T10:50:08.996Z,30.73
2018-07-08T10:53:33.521Z,31.04
2018-07-08T10:56:58.121Z,30.76
2018-07-08T11:00:22.638Z,30.86
2018-07-08T11:03:48.251Z,30.68
2018-07-08T11:07:12.631Z,31.24
2018-07-08T11:10:37.100Z,31.12
2018-07-08T11:14:01.585Z,31.08
2018-07-08T11:17:26.142Z,31.17
2018-07-08T11:20:50.647Z,31.54
2018-07-08T11:24:15.128Z,32.30
2018-07-08T11:27:39.655Z,31.91
2018-07-08T11:31:04.138Z,31.61
2018-07-08T11:34:28.594Z,32.25
2018-07-08T11:37:53.124Z,32.45
2018-07-08T11:41:17.672Z,33.15
2018-07-08T11:44:42.277Z,32.43
2018-07-08T11:48:06.965Z,32.95
2018-07-08T11:51:31.531Z,33.71
2018-07-08T11:54:55.977Z,33.79
2018-07-08T11:58:20.539Z,33.85
2018-07-08T12:01:45.062Z,33.61
2018-07-08T12:05:09.584Z,33.61
2018-07-08T12:08:34.118Z,34.24
2018-07-08T12:11:58.624Z,34.30
2018-07-08T12:15:23.106Z,34.18
2018-07-08T12:18:47.639Z,34.19
2018-07-08T12:22:12.279Z,34.27
2018-07-08T12:25:36.726Z,34.54
2018-07-08T12:29:01.260Z,35.68
2018-07-08T12:32:25.831Z,37.19
2018-07-08T12:35:50.386Z,37.03
2018-07-08T12:39:15.328Z,38.41
2018-07-08T12:42:39.957Z,38.93
2018-07-08T12:46:04.875Z,40.31
2018-07-08T12:49:29.426Z,41.58
2018-07-08T12:52:53.911Z,43.08
2018-07-08T12:56:18.380Z,43.25
2018-07-08T12:59:42.903Z,44.67
2018-07-08T13:03:09.829Z,45.44
2018-07-08T13:06:34.357Z,44.83
2018-07-08T13:09:59.204Z,45.12
2018-07-08T13:13:25.493Z,45.92
2018-07-08T13:16:50.137Z,45.30
2018-07-08T13:20:14.668Z,46.14
2018-07-08T13:23:39.906Z,43.28
2018-07-08T13:27:04.510Z,44.08
2018-07-08T13:30:29.057Z,45.18
2018-07-08T13:33:53.612Z,44.76
2018-07-08T13:37:18.132Z,46.15
2018-07-08T13:40:42.704Z,46.42
2018-07-08T13:44:07.482Z,46.52
2018-07-08T13:47:32.074Z,45.39
2018-07-08T13:50:56.550Z,46.18
2018-07-08T13:54:21.086Z,45.66
2018-07-08T13:57:45.579Z,45.17
2018-07-08T14:01:10.125Z,44.89
2018-07-08T14:04:34.635Z,44.84
2018-07-08T14:07:59.078Z,44.52
2018-07-08T14:11:23.668Z,43.09
2018-07-08T14:14:48.178Z,45.08
2018-07-08T14:18:12.602Z,44.01
2018-07-08T14:21:37.135Z,44.11
2018-07-08T14:25:01.639Z,45.48
2018-07-08T14:28:26.221Z,44.71
2018-07-08T14:31:50.755Z,45.03
2018-07-08T14:35:18.060Z,43.87
2018-07-08T14:38:42.652Z,43.73
2018-07-08T14:42:07.352Z,46.34
2018-07-08T14:45:31.917Z,45.10
2018-07-08T14:48:56.412Z,46.37
2018-07-08T14:52:20.916Z,46.78
2018-07-08T14:55:45.692Z,45.56
2018-07-08T14:59:10.394Z,43.97
2018-07-08T15:02:35.355Z,45.51
2018-07-08T15:05:59.892Z,45.46
2018-07-08T15:09:26.665Z,45.66
2018-07-08T15:12:51.077Z,46.91
2018-07-08T15:16:15.587Z,46.94
2018-07-08T15:19:40.239Z,47.69
2018-07-08T15:23:04.843Z,46.71
2018-07-08T15:26:29.350Z,46.66
2018-07-08T15:29:54.107Z,46.11
2018-07-08T15:33:18.586Z,47.29
2018-07-08T15:36:43.020Z,46.64
2018-07-08T15:40:07.615Z,45.50
2018-07-08T15:43:33.132Z,47.27
2018-07-08T15:46:57.667Z,46.86
2018-07-08T15:50:22.059Z,46.65
2018-07-08T15:53:46.512Z,47.33
2018-07-08T15:57:10.969Z,46.46
2018-07-08T16:00:35.634Z,48.05
2018-07-08T16:04:00.161Z,47.31
2018-07-08T16:07:24.615Z,48.09
2018-07-08T16:10:49.112Z,46.75
2018-07-08T16:14:13.606Z,46.28
2018-07-08T16:17:38.134Z,46.00
2018-07-08T16:21:03.212Z,45.43
2018-07-08T16:24:27.748Z,45.45
2018-07-08T16:27:52.280Z,44.34
2018-07-08T16:31:16.765Z,44.00
2018-07-08T16:34:40.925Z,43.34
2018-07-08T16:38:06.164Z,41.60
2018-07-08T16:41:30.657Z,40.76
2018-07-08T16:44:55.781Z,40.01
2018-07-08T16:48:20.254Z,39.15
2018-07-08T16:51:44.793Z,38.83
2018-07-08T16:55:09.272Z,39.29
2018-07-08T16:58:33.801Z,39.27
2018-07-08T17:01:58.722Z,39.33
2018-07-08T17:05:23.253Z,38.46
2018-07-08T17:08:47.720Z,38.24
2018-07-08T17:12:12.126Z,38.42
2018-07-08T17:15:36.632Z,37.72
2018-07-08T17:19:01.174Z,36.54
2018-07-08T17:22:25.729Z,35.66
2018-07-08T17:25:50.751Z,34.95
2018-07-08T17:29:15.389Z,34.57
2018-07-08T17:32:39.964Z,33.91
2018-07-08T17:36:04.476Z,33.70
2018-07-08T17:39:28.989Z,32.83
2018-07-08T17:42:53.523Z,32.84
2018-07-08T17:46:21.557Z,32.55
2018-07-08T17:49:46.242Z,32.02
2018-07-08T17:53:12.046Z,31.88
2018-07-08T17:56:37.252Z,31.63
2018-07-08T18:00:01.852Z,31.34
2018-07-08T18:03:26.281Z,31.01
2018-07-08T18:06:51.816Z,30.55
2018-07-08T18:10:16.245Z,30.04
2018-07-08T18:13:40.807Z,30.24
2018-07-08T18:17:05.295Z,29.74
2018-07-08T18:20:29.771Z,29.38
2018-07-08T18:23:54.420Z,29.27
2018-07-08T18:27:19.267Z,29.36
2018-07-08T18:30:43.813Z,29.19
2018-07-08T18:34:08.422Z,29.19
2018-07-08T18:37:33.008Z,29.00
2018-07-08T18:40:57.465Z,28.81
2018-07-08T18:44:21.991Z,28.74
2018-07-08T18:47:46.422Z,28.30
2018-07-08T18:51:10.921Z,28.33
2018-07-08T18:54:35.482Z,28.10
2018-07-08T18:58:00.271Z,27.95
2018-07-08T19:01:24.720Z,27.74
2018-07-08T19:04:49.329Z,27.51
2018-07-08T19:08:13.960Z,27.55
2018-07-08T19:11:38.489Z,27.58
2018-07-08T19:15:02.940Z,27.57
2018-07-08T19:18:27.407Z,27.23
2018-07-08T19:21:51.916Z,27.05
2018-07-08T19:25:16.412Z,27.05
2018-07-08T19:28:40.977Z,26.86
2018-07-08T19:32:05.750Z,26.72
2018-07-08T19:35:31.107Z,26.59
2018-07-08T19:38:55.755Z,26.67
2018-07-08T19:42:20.229Z,26.43
2018-07-08T19:45:44.833Z,26.48
2018-07-08T19:49:09.261Z,26.40
2018-07-08T19:52:33.661Z,26.18
2018-07-08T19:55:58.950Z,26.10
2018-07-08T19:59:24.416Z,26.00
2018-07-08T20:02:48.857Z,25.89
2018-07-08T20:06:13.308Z,25.79
2018-07-08T20:09:37.761Z,25.79
2018-07-08T20:13:02.249Z,25.55
2018-07-08T20:16:26.856Z,25.55
2018-07-08T20:19:51.375Z,25.49
2018-07-08T20:23:15.862Z,25.44
2018-07-08T20:26:40.400Z,25.35
2018-07-08T20:30:05.029Z,25.12
2018-07-08T20:33:32.862Z,25.19
2018-07-08T20:36:58.155Z,25.16
2018-07-08T20:40:22.695Z,24.99
2018-07-08T20:43:47.206Z,24.96
2018-07-08T20:47:11.685Z,24.80
2018-07-08T20:50:36.275Z,24.86
2018-07-08T20:54:00.742Z,24.63
2018-07-08T20:57:25.210Z,24.52
2018-07-08T21:00:49.755Z,24.41
2018-07-08T21:04:14.218Z,24.41
2018-07-08T21:07:38.719Z,24.33
2018-07-08T21:11:03.374Z,24.11
2018-07-08T21:14:27.970Z,24.39
2018-07-08T21:17:52.451Z,24.05
2018-07-08T21:21:16.944Z,24.01
2018-07-08T21:24:41.557Z,23.82
2018-07-08T21:28:21.929Z,23.81
2018-07-08T21:31:46.714Z,23.82
2018-07-08T21:35:11.198Z,23.79
2018-07-08T21:38:35.927Z,23.73
2018-07-08T21:42:00.437Z,23.81
2018-07-08T21:45:25.110Z,23.44
2018-07-08T21:48:49.586Z,23.57
2018-07-08T21:52:14.016Z,23.44
2018-07-08T21:55:38.476Z,23.51
2018-07-08T21:59:02.928Z,23.42
2018-07-08T22:02:27.425Z,23.40
2018-07-08T22:05:51.894Z,23.17
2018-07-08T22:09:16.379Z,23.19
2018-07-08T22:12:40.822Z,23.28
2018-07-08T22:16:05.508Z,23.03
2018-07-08T22:19:29.960Z,22.97
2018-07-08T22:22:54.888Z,22.75
2018-07-08T22:26:19.327Z,22.79
2018-07-08T22:29:43.797Z,22.86
2018-07-08T22:33:08.287Z,22.73
2018-07-08T22:36:33.002Z,22.64
2018-07-08T22:39:57.526Z,22.55
2018-07-08T22:43:22.203Z,22.56
2018-07-08T22:46:46.743Z,22.37
2018-07-08T22:50:11.234Z,22.42
2018-07-08T22:53:35.734Z,22.22
2018-07-08T22:57:00.169Z,22.31
2018-07-08T23:00:41.854Z,22.45
2018-07-08T23:04:06.855Z,21.95
2018-07-08T23:07:31.369Z,22.17
2018-07-08T23:10:55.897Z,21.95
2018-07-08T23:14:20.366Z,21.80
2018-07-08T23:17:46.016Z,21.89
2018-07-08T23:21:10.515Z,21.88
2018-07-08T23:24:35.047Z,21.84
2018-07-08T23:28:00.263Z,21.53
2018-07-08T23:31:24.750Z,21.53
2018-07-08T23:34:49.232Z,21.40
2018-07-08T23:38:13.808Z,21.35
2018-07-08T23:41:38.344Z,21.31
2018-07-08T23:45:02.807Z,21.44
2018-07-08T23:48:30.196Z,21.29
2018-07-08T23:51:54.593Z,21.09
2018-07-08T23:55:19.019Z,20.82
2018-07-08T23:58:44.537Z,20.96
